Terminal Aerodrome Forecast
Issued by NWS Cleveland, OH

Home | Current Version | Previous Version | Graphics & Text | Print | Product List | Glossary On
Versions: 1 2 3 4 5 6 7 8 9 10 11 12 13 14 15
768
FTUS41 KCLE 222321
TAFTOL
TAF
KTOL 222321Z 2300/2324 VRB03KT P6SM SCT150 BKN250
      TEMPO 2310/2313 4SM BR
     FM231400 36005KT P6SM BKN150 OVC250
     FM231800 04008KT P6SM SCT040 OVC100=

USA.gov is the U.S. government's official web portal to all federal, state and local government web resources and services.